NPT32T EGAA-EGNX
Flight info
| Callsign | NPT32T |
|---|---|
| Flight time | 0h 38m |
| Altitude | 25000 |
| Route | DCT LISBO L603 PEPOD Q38 MAKUX MAKUX1E |
| Aircraft | B738/M-SDE2E3FGHIRWXY/LB1 |
Departure
| Time | 2026-05-05 21:20 |
|---|---|
| Airport | Belfast International Airport (EGAA) |
Arrival
| Time | 2026-05-05 21:58 |
|---|---|
| Airport | East Midlands Airport (EGNX) |
| Time | Latitude | Longitude | Altitude | Speed | Heading |
|---|---|---|---|---|---|
| 2026-05-05 20:52 | 54.65897 | -6.22154 | 271 ft | 0 kts | 154° |
| 2026-05-05 21:10 | 54.65906 | -6.22163 | 271 ft | 4 kts | 148° |
| 2026-05-05 21:11 | 54.65926 | -6.22192 | 274 ft | 4 kts | 118° |
| 2026-05-05 21:11 | 54.65930 | -6.22231 | 271 ft | 3 kts | 67° |
| 2026-05-05 21:11 | 54.65921 | -6.22268 | 274 ft | 4 kts | 65° |
| 2026-05-05 21:11 | 54.65916 | -6.22284 | 274 ft | 0 kts | 65° |
| 2026-05-05 21:14 | 54.65917 | -6.22280 | 272 ft | 2 kts | 65° |
| 2026-05-05 21:14 | 54.65932 | -6.22225 | 271 ft | 9 kts | 65° |
| 2026-05-05 21:15 | 54.65956 | -6.22116 | 273 ft | 9 kts | 95° |
| 2026-05-05 21:15 | 54.65912 | -6.22053 | 271 ft | 9 kts | 156° |
| 2026-05-05 21:15 | 54.65857 | -6.22011 | 273 ft | 9 kts | 155° |
| 2026-05-05 21:15 | 54.65806 | -6.22048 | 271 ft | 9 kts | 240° |
| 2026-05-05 21:16 | 54.65780 | -6.22161 | 276 ft | 11 kts | 253° |
| 2026-05-05 21:16 | 54.65766 | -6.22297 | 271 ft | 12 kts | 264° |
| 2026-05-05 21:16 | 54.65756 | -6.22448 | 271 ft | 13 kts | 263° |
| 2026-05-05 21:16 | 54.65746 | -6.22597 | 271 ft | 13 kts | 265° |
| 2026-05-05 21:17 | 54.65739 | -6.22760 | 271 ft | 14 kts | 263° |
| 2026-05-05 21:17 | 54.65701 | -6.22921 | 274 ft | 15 kts | 235° |
| 2026-05-05 21:17 | 54.65636 | -6.23075 | 271 ft | 17 kts | 233° |
| 2026-05-05 21:17 | 54.65563 | -6.23247 | 271 ft | 18 kts | 234° |
| 2026-05-05 21:18 | 54.65474 | -6.23361 | 271 ft | 16 kts | 201° |
| 2026-05-05 21:18 | 54.65372 | -6.23405 | 271 ft | 15 kts | 162° |
| 2026-05-05 21:18 | 54.65294 | -6.23332 | 271 ft | 9 kts | 132° |
| 2026-05-05 21:18 | 54.65297 | -6.23260 | 271 ft | 0 kts | 65° |
| 2026-05-05 21:19 | 54.65298 | -6.23255 | 271 ft | 1 kts | 65° |
| 2026-05-05 21:19 | 54.65306 | -6.23223 | 275 ft | 16 kts | 65° |
| 2026-05-05 21:19 | 54.65483 | -6.22571 | 271 ft | 105 kts | 65° |
| 2026-05-05 21:19 | 54.65895 | -6.21054 | 425 ft | 162 kts | 63° |
| 2026-05-05 21:20 | 54.66351 | -6.19308 | 1543 ft | 155 kts | 63° |
| 2026-05-05 21:20 | 54.66502 | -6.17504 | 2582 ft | 162 kts | 97° |
| 2026-05-05 21:20 | 54.65872 | -6.15662 | 2998 ft | 203 kts | 136° |
| 2026-05-05 21:20 | 54.64557 | -6.14385 | 3294 ft | 230 kts | 153° |
| 2026-05-05 21:21 | 54.63038 | -6.13235 | 3747 ft | 243 kts | 154° |
| 2026-05-05 21:21 | 54.61711 | -6.11543 | 4547 ft | 236 kts | 127° |
| 2026-05-05 21:21 | 54.60725 | -6.09336 | 5348 ft | 237 kts | 127° |
| 2026-05-05 21:21 | 54.59651 | -6.07136 | 6034 ft | 244 kts | 130° |
| 2026-05-05 21:22 | 54.58483 | -6.04927 | 6607 ft | 260 kts | 133° |
| 2026-05-05 21:22 | 54.57180 | -6.02620 | 7238 ft | 276 kts | 135° |
| 2026-05-05 21:22 | 54.55784 | -6.00268 | 8044 ft | 285 kts | 136° |
| 2026-05-05 21:22 | 54.54335 | -5.97917 | 9054 ft | 289 kts | 137° |
| 2026-05-05 21:23 | 54.52832 | -5.95542 | 9986 ft | 297 kts | 138° |
| 2026-05-05 21:23 | 54.51263 | -5.93109 | 10644 ft | 315 kts | 139° |
| 2026-05-05 21:23 | 54.49545 | -5.90481 | 10874 ft | 345 kts | 139° |
| 2026-05-05 21:23 | 54.47715 | -5.87704 | 11387 ft | 362 kts | 139° |
| 2026-05-05 21:24 | 54.45803 | -5.84818 | 12219 ft | 369 kts | 140° |
| 2026-05-05 21:24 | 54.43862 | -5.81901 | 13157 ft | 374 kts | 140° |
| 2026-05-05 21:24 | 54.41889 | -5.78942 | 14079 ft | 380 kts | 140° |
| 2026-05-05 21:24 | 54.39885 | -5.75942 | 14956 ft | 384 kts | 140° |
| 2026-05-05 21:25 | 54.37864 | -5.72922 | 15900 ft | 387 kts | 140° |
| 2026-05-05 21:25 | 54.35820 | -5.69872 | 16822 ft | 391 kts | 140° |
| 2026-05-05 21:25 | 54.33756 | -5.66795 | 17739 ft | 396 kts | 140° |
| 2026-05-05 21:25 | 54.31664 | -5.63679 | 18567 ft | 401 kts | 140° |
| 2026-05-05 21:26 | 54.29543 | -5.60529 | 19310 ft | 406 kts | 141° |
| 2026-05-05 21:26 | 54.27449 | -5.57349 | 20064 ft | 411 kts | 137° |
| 2026-05-05 21:26 | 54.25575 | -5.53619 | 20792 ft | 417 kts | 127° |
| 2026-05-05 21:26 | 54.23897 | -5.49549 | 21536 ft | 421 kts | 126° |
| 2026-05-05 21:27 | 54.22211 | -5.45420 | 22254 ft | 426 kts | 126° |
| 2026-05-05 21:27 | 54.20483 | -5.41281 | 22937 ft | 430 kts | 127° |
| 2026-05-05 21:27 | 54.18716 | -5.37117 | 23613 ft | 435 kts | 127° |
| 2026-05-05 21:27 | 54.16932 | -5.32921 | 24167 ft | 439 kts | 127° |
| 2026-05-05 21:28 | 54.15137 | -5.28692 | 24743 ft | 440 kts | 127° |
| 2026-05-05 21:28 | 54.13335 | -5.24445 | 25058 ft | 444 kts | 127° |
| 2026-05-05 21:28 | 54.11545 | -5.20231 | 25052 ft | 445 kts | 127° |
| 2026-05-05 21:28 | 54.09731 | -5.15967 | 25062 ft | 444 kts | 127° |
| 2026-05-05 21:29 | 54.07917 | -5.11709 | 25067 ft | 444 kts | 127° |
| 2026-05-05 21:29 | 54.06103 | -5.07458 | 25070 ft | 444 kts | 127° |
| 2026-05-05 21:29 | 54.04281 | -5.03199 | 25064 ft | 445 kts | 127° |
| 2026-05-05 21:29 | 54.02504 | -4.99050 | 25064 ft | 445 kts | 127° |
| 2026-05-05 21:30 | 54.00681 | -4.94798 | 25064 ft | 445 kts | 127° |
| 2026-05-05 21:30 | 53.98853 | -4.90545 | 25062 ft | 445 kts | 127° |
| 2026-05-05 21:30 | 53.97025 | -4.86302 | 25062 ft | 445 kts | 128° |
| 2026-05-05 21:30 | 53.95216 | -4.82127 | 25057 ft | 445 kts | 128° |
| 2026-05-05 21:31 | 53.93379 | -4.77905 | 25060 ft | 445 kts | 128° |
| 2026-05-05 21:31 | 53.91540 | -4.73686 | 25057 ft | 445 kts | 128° |
| 2026-05-05 21:31 | 53.89701 | -4.69474 | 25045 ft | 444 kts | 128° |
| 2026-05-05 21:31 | 53.87865 | -4.65270 | 25061 ft | 444 kts | 128° |
| 2026-05-05 21:32 | 53.86031 | -4.61073 | 25064 ft | 443 kts | 128° |
| 2026-05-05 21:32 | 53.84195 | -4.56879 | 25063 ft | 443 kts | 128° |
| 2026-05-05 21:32 | 53.82359 | -4.52694 | 25063 ft | 443 kts | 128° |
| 2026-05-05 21:32 | 53.80523 | -4.48516 | 25060 ft | 443 kts | 128° |
| 2026-05-05 21:33 | 53.78683 | -4.44335 | 25058 ft | 443 kts | 128° |
| 2026-05-05 21:33 | 53.76843 | -4.40159 | 25054 ft | 443 kts | 128° |
| 2026-05-05 21:33 | 53.75027 | -4.36043 | 25052 ft | 443 kts | 128° |
| 2026-05-05 21:33 | 53.73183 | -4.31868 | 25052 ft | 443 kts | 128° |
| 2026-05-05 21:34 | 53.71341 | -4.27703 | 25052 ft | 443 kts | 128° |
| 2026-05-05 21:34 | 53.69495 | -4.23536 | 25052 ft | 443 kts | 128° |
| 2026-05-05 21:34 | 53.67648 | -4.19374 | 25052 ft | 443 kts | 128° |
| 2026-05-05 21:34 | 53.65799 | -4.15211 | 25036 ft | 443 kts | 128° |
| 2026-05-05 21:35 | 53.63949 | -4.11057 | 25044 ft | 443 kts | 128° |
| 2026-05-05 21:35 | 53.62097 | -4.06908 | 25048 ft | 443 kts | 128° |
| 2026-05-05 21:35 | 53.60270 | -4.02823 | 25052 ft | 443 kts | 128° |
| 2026-05-05 21:35 | 53.58455 | -3.98772 | 25053 ft | 443 kts | 128° |
| 2026-05-05 21:36 | 53.56598 | -3.94633 | 25049 ft | 443 kts | 129° |
| 2026-05-05 21:36 | 53.54744 | -3.90505 | 25049 ft | 443 kts | 129° |
| 2026-05-05 21:36 | 53.52885 | -3.86373 | 25049 ft | 443 kts | 129° |
| 2026-05-05 21:36 | 53.51026 | -3.82246 | 25049 ft | 443 kts | 129° |
| 2026-05-05 21:37 | 53.49166 | -3.78125 | 25053 ft | 443 kts | 129° |
| 2026-05-05 21:37 | 53.47304 | -3.74004 | 25054 ft | 443 kts | 129° |
| 2026-05-05 21:37 | 53.45467 | -3.69944 | 25051 ft | 443 kts | 129° |
| 2026-05-05 21:37 | 53.43601 | -3.65826 | 25052 ft | 443 kts | 129° |
| 2026-05-05 21:38 | 53.41736 | -3.61719 | 25052 ft | 443 kts | 129° |
| 2026-05-05 21:38 | 53.39816 | -3.57694 | 25053 ft | 442 kts | 132° |
| 2026-05-05 21:38 | 53.37797 | -3.53806 | 25053 ft | 442 kts | 133° |
| 2026-05-05 21:38 | 53.35748 | -3.49984 | 25050 ft | 440 kts | 134° |
| 2026-05-05 21:39 | 53.33729 | -3.46230 | 24716 ft | 429 kts | 134° |
| 2026-05-05 21:39 | 53.31749 | -3.42525 | 24023 ft | 427 kts | 133° |
| 2026-05-05 21:39 | 53.29779 | -3.38813 | 23121 ft | 427 kts | 133° |
| 2026-05-05 21:39 | 53.27821 | -3.35108 | 22482 ft | 421 kts | 133° |
| 2026-05-05 21:40 | 53.25933 | -3.31529 | 22061 ft | 411 kts | 133° |
| 2026-05-05 21:40 | 53.24050 | -3.27962 | 21675 ft | 411 kts | 133° |
| 2026-05-05 21:40 | 53.22145 | -3.24364 | 21419 ft | 416 kts | 133° |
| 2026-05-05 21:40 | 53.20219 | -3.20734 | 21252 ft | 418 kts | 133° |
| 2026-05-05 21:41 | 53.18385 | -3.16979 | 21097 ft | 418 kts | 126° |
| 2026-05-05 21:41 | 53.16804 | -3.12913 | 20943 ft | 418 kts | 122° |
| 2026-05-05 21:41 | 53.15317 | -3.08762 | 20803 ft | 417 kts | 122° |
| 2026-05-05 21:41 | 53.13831 | -3.04613 | 20647 ft | 416 kts | 122° |
| 2026-05-05 21:42 | 53.12320 | -3.00503 | 20490 ft | 416 kts | 123° |
| 2026-05-05 21:42 | 53.10859 | -2.96628 | 20345 ft | 415 kts | 123° |
| 2026-05-05 21:42 | 53.09316 | -2.92586 | 20198 ft | 414 kts | 124° |
| 2026-05-05 21:42 | 53.07871 | -2.88456 | 20074 ft | 414 kts | 114° |
| 2026-05-05 21:43 | 53.07198 | -2.83858 | 20060 ft | 403 kts | 97° |
| 2026-05-05 21:43 | 53.06870 | -2.79347 | 20033 ft | 385 kts | 97° |
| 2026-05-05 21:43 | 53.06559 | -2.75025 | 20023 ft | 369 kts | 97° |
| 2026-05-05 21:43 | 53.06253 | -2.70893 | 20017 ft | 352 kts | 97° |
| 2026-05-05 21:44 | 53.05946 | -2.66896 | 19531 ft | 351 kts | 97° |
| 2026-05-05 21:44 | 53.05626 | -2.62845 | 18571 ft | 366 kts | 97° |
| 2026-05-05 21:44 | 53.05282 | -2.58577 | 18163 ft | 364 kts | 98° |
| 2026-05-05 21:44 | 53.04946 | -2.54447 | 17875 ft | 369 kts | 98° |
| 2026-05-05 21:45 | 53.04597 | -2.50173 | 17598 ft | 376 kts | 98° |
| 2026-05-05 21:45 | 53.04241 | -2.45849 | 17320 ft | 379 kts | 98° |
| 2026-05-05 21:45 | 53.03886 | -2.41543 | 16959 ft | 374 kts | 98° |
| 2026-05-05 21:45 | 53.03534 | -2.37293 | 16495 ft | 369 kts | 98° |
| 2026-05-05 21:46 | 53.03183 | -2.33092 | 15906 ft | 367 kts | 98° |
| 2026-05-05 21:46 | 53.02956 | -2.28877 | 15268 ft | 366 kts | 89° |
| 2026-05-05 21:46 | 53.03049 | -2.24672 | 14775 ft | 362 kts | 91° |
| 2026-05-05 21:46 | 53.02562 | -2.20614 | 14227 ft | 358 kts | 110° |
| 2026-05-05 21:47 | 53.01588 | -2.16907 | 13670 ft | 352 kts | 115° |
| 2026-05-05 21:47 | 53.00514 | -2.13232 | 13020 ft | 347 kts | 116° |
| 2026-05-05 21:47 | 52.99460 | -2.09727 | 12397 ft | 342 kts | 116° |
| 2026-05-05 21:47 | 52.98394 | -2.06226 | 11775 ft | 336 kts | 116° |
| 2026-05-05 21:48 | 52.97340 | -2.02807 | 11158 ft | 329 kts | 117° |
| 2026-05-05 21:48 | 52.96051 | -1.99855 | 10789 ft | 317 kts | 137° |
| 2026-05-05 21:48 | 52.94225 | -1.98007 | 10539 ft | 301 kts | 158° |
| 2026-05-05 21:48 | 52.92307 | -1.96855 | 10091 ft | 287 kts | 161° |
| 2026-05-05 21:49 | 52.90456 | -1.95844 | 9578 ft | 273 kts | 162° |
| 2026-05-05 21:49 | 52.88685 | -1.94895 | 9064 ft | 262 kts | 162° |
| 2026-05-05 21:49 | 52.86969 | -1.93979 | 8529 ft | 256 kts | 162° |
| 2026-05-05 21:49 | 52.85411 | -1.92762 | 7991 ft | 250 kts | 139° |
| 2026-05-05 21:50 | 52.84119 | -1.90896 | 7455 ft | 245 kts | 139° |
| 2026-05-05 21:50 | 52.82803 | -1.89131 | 6880 ft | 241 kts | 140° |
| 2026-05-05 21:50 | 52.81811 | -1.86985 | 6268 ft | 236 kts | 105° |
| 2026-05-05 21:50 | 52.81745 | -1.84362 | 5731 ft | 226 kts | 81° |
| 2026-05-05 21:51 | 52.81904 | -1.81887 | 5593 ft | 208 kts | 83° |
| 2026-05-05 21:51 | 52.82021 | -1.79587 | 5447 ft | 196 kts | 84° |
| 2026-05-05 21:51 | 52.82114 | -1.77387 | 5383 ft | 188 kts | 84° |
| 2026-05-05 21:51 | 52.82232 | -1.75226 | 5213 ft | 196 kts | 81° |
| 2026-05-05 21:52 | 52.82461 | -1.70776 | 4710 ft | 191 kts | 86° |
| 2026-05-05 21:52 | 52.82507 | -1.68613 | 4451 ft | 185 kts | 87° |
| 2026-05-05 21:52 | 52.82541 | -1.66519 | 4203 ft | 179 kts | 85° |
| 2026-05-05 21:53 | 52.82572 | -1.64494 | 3956 ft | 175 kts | 86° |
| 2026-05-05 21:53 | 52.82603 | -1.62492 | 3727 ft | 174 kts | 86° |
| 2026-05-05 21:53 | 52.82634 | -1.60482 | 3497 ft | 175 kts | 86° |
| 2026-05-05 21:53 | 52.82665 | -1.58494 | 3254 ft | 171 kts | 86° |
| 2026-05-05 21:54 | 52.82695 | -1.56578 | 3012 ft | 166 kts | 85° |
| 2026-05-05 21:54 | 52.82724 | -1.54723 | 2795 ft | 155 kts | 84° |
| 2026-05-05 21:54 | 52.82750 | -1.53046 | 2593 ft | 138 kts | 84° |
| 2026-05-05 21:54 | 52.82775 | -1.51529 | 2412 ft | 130 kts | 83° |
| 2026-05-05 21:55 | 52.82802 | -1.50011 | 2234 ft | 135 kts | 82° |
| 2026-05-05 21:55 | 52.82829 | -1.48448 | 2051 ft | 136 kts | 83° |
| 2026-05-05 21:55 | 52.82854 | -1.46903 | 1860 ft | 133 kts | 83° |
| 2026-05-05 21:55 | 52.82879 | -1.45383 | 1675 ft | 132 kts | 83° |
| 2026-05-05 21:56 | 52.82905 | -1.43875 | 1490 ft | 133 kts | 83° |
| 2026-05-05 21:56 | 52.82932 | -1.42310 | 1309 ft | 138 kts | 83° |
| 2026-05-05 21:56 | 52.82955 | -1.40734 | 1134 ft | 135 kts | 84° |
| 2026-05-05 21:56 | 52.82982 | -1.39185 | 925 ft | 133 kts | 83° |
| 2026-05-05 21:57 | 52.83004 | -1.37660 | 774 ft | 132 kts | 85° |
| 2026-05-05 21:57 | 52.83038 | -1.36199 | 536 ft | 124 kts | 82° |
| 2026-05-05 21:57 | 52.83063 | -1.34751 | 335 ft | 128 kts | 83° |
| 2026-05-05 21:57 | 52.83085 | -1.33382 | 307 ft | 108 kts | 85° |
| 2026-05-05 21:58 | 52.83111 | -1.32334 | 300 ft | 74 kts | 88° |
| 2026-05-05 21:58 | 52.83122 | -1.31664 | 308 ft | 42 kts | 89° |
| 2026-05-05 21:58 | 52.83124 | -1.31376 | 305 ft | 17 kts | 98° |
| 2026-05-05 21:58 | 52.83051 | -1.31317 | 303 ft | 13 kts | 179° |
| 2026-05-05 21:59 | 52.82986 | -1.31315 | 300 ft | 8 kts | 182° |
| 2026-05-05 21:59 | 52.82957 | -1.31387 | 303 ft | 8 kts | 273° |
| 2026-05-05 21:59 | 52.82955 | -1.31481 | 301 ft | 8 kts | 268° |
| 2026-05-05 21:59 | 52.82953 | -1.31572 | 300 ft | 8 kts | 268° |
| 2026-05-05 22:00 | 52.82951 | -1.31659 | 300 ft | 8 kts | 262° |
| 2026-05-05 22:00 | 52.82916 | -1.31711 | 301 ft | 7 kts | 192° |
| 2026-05-05 22:00 | 52.82869 | -1.31747 | 301 ft | 7 kts | 187° |
| 2026-05-05 22:00 | 52.82834 | -1.31745 | 300 ft | 4 kts | 178° |
| 2026-05-05 22:01 | 52.82821 | -1.31745 | 300 ft | 1 kts | 178° |